Time;durP1;ratioP1;P1;durP2;ratioP2;P2;SDS_P1;SDS_P2;PMS_P1;PMS_P2;Temp;Humidity;BMP_temperature;BMP_pressure;BME280_temperature;BME280_humidity;BME280_pressure;Samples;Min_cycle;Max_cycle;Signal;HPM_P1;HPM_P2
2021/05/28 00:00:32;;;;;;;0.70;0.50;;;11.50;99.90;;;;;;5025790;28;20198;-80
2021/05/28 00:02:58;;;;;;;0.70;0.50;;;11.50;99.90;;;;;;5026931;28;20184;-80
2021/05/28 00:05:24;;;;;;;0.70;0.50;;;11.40;99.90;;;;;;5015693;28;20188;-79
2021/05/28 00:07:50;;;;;;;5.13;1.00;;;11.40;99.90;;;;;;5014294;28;20540;-78
2021/05/28 00:10:16;;;;;;;0.70;0.50;;;11.40;99.90;;;;;;5016378;28;20856;-79
2021/05/28 00:12:42;;;;;;;0.70;0.50;;;11.40;99.90;;;;;;5015550;28;20234;-79
2021/05/28 00:15:13;;;;;;;0.70;0.50;;;11.40;99.90;;;;;;5032728;28;20826;-79
2021/05/28 00:17:39;;;;;;;0.70;0.50;;;11.40;99.90;;;;;;5002763;28;20449;-79
2021/05/28 00:20:07;;;;;;;0.70;0.50;;;11.40;99.90;;;;;;5016093;28;20439;-78
2021/05/28 00:22:33;;;;;;;0.70;0.50;;;11.30;99.90;;;;;;5021136;28;20656;-78
2021/05/28 00:24:59;;;;;;;0.70;0.50;;;11.40;99.90;;;;;;5013465;28;20588;-80
2021/05/28 00:27:29;;;;;;;0.70;0.50;;;11.30;99.90;;;;;;5015778;28;20462;-79
2021/05/28 00:29:55;;;;;;;0.70;0.50;;;11.30;99.90;;;;;;5031371;28;20179;-79
2021/05/28 00:32:20;;;;;;;0.70;0.50;;;11.30;99.90;;;;;;5016315;28;20431;-78
2021/05/28 00:34:49;;;;;;;1.10;0.93;;;11.20;99.90;;;;;;5017138;28;20172;-80
2021/05/28 00:37:14;;;;;;;0.70;0.50;;;11.20;99.90;;;;;;5033499;28;20574;-79
2021/05/28 00:39:40;;;;;;;0.70;0.50;;;11.20;99.90;;;;;;5017705;28;20473;-79
2021/05/28 00:42:06;;;;;;;0.70;0.50;;;11.20;99.90;;;;;;5024033;28;20187;-79
2021/05/28 00:44:32;;;;;;;0.70;0.50;;;11.20;99.90;;;;;;5032876;28;20290;-79
2021/05/28 00:46:58;;;;;;;0.70;0.50;;;11.20;99.90;;;;;;5017495;28;20242;-79
2021/05/28 00:49:23;;;;;;;0.70;0.50;;;11.10;99.90;;;;;;5014259;28;20435;-79
2021/05/28 00:51:50;;;;;;;0.70;0.50;;;11.10;99.90;;;;;;5012771;28;20183;-77
2021/05/28 00:54:15;;;;;;;0.70;0.50;;;11.10;99.90;;;;;;5031420;28;20183;-79
2021/05/28 00:56:41;;;;;;;0.70;0.50;;;11.00;99.90;;;;;;5032433;28;20538;-78
2021/05/28 00:59:08;;;;;;;0.70;0.50;;;11.00;99.90;;;;;;5013828;28;20181;-78
2021/05/28 01:01:35;;;;;;;0.70;0.50;;;11.00;99.90;;;;;;5018011;28;20237;-80
2021/05/28 01:04:01;;;;;;;4.87;1.90;;;11.00;99.90;;;;;;5031444;28;20497;-79
2021/05/28 01:06:27;;;;;;;0.70;0.50;;;11.00;99.90;;;;;;5014026;28;20486;-79
2021/05/28 01:08:54;;;;;;;0.70;0.50;;;10.90;99.90;;;;;;5028799;28;20454;-78
2021/05/28 01:11:20;;;;;;;0.70;0.47;;;10.90;99.90;;;;;;5014748;28;20510;-80
2021/05/28 01:13:46;;;;;;;0.70;0.50;;;10.90;99.90;;;;;;5015185;28;20446;-79
2021/05/28 01:16:12;;;;;;;0.70;0.50;;;10.90;99.90;;;;;;5013669;28;20991;-78
2021/05/28 01:18:37;;;;;;;0.70;0.50;;;10.90;99.90;;;;;;5014848;28;20262;-78
2021/05/28 01:21:03;;;;;;;0.70;0.50;;;10.90;99.90;;;;;;5027658;28;20187;-79
2021/05/28 01:23:29;;;;;;;0.80;0.70;;;10.90;99.90;;;;;;5029676;28;20203;-79
2021/05/28 01:25:54;;;;;;;0.70;0.50;;;10.90;99.90;;;;;;5027507;28;20318;-79
2021/05/28 01:28:20;;;;;;;0.80;0.63;;;10.90;99.90;;;;;;5014095;28;20212;-79
2021/05/28 01:30:45;;;;;;;1.40;0.90;;;10.80;99.90;;;;;;5028595;28;20180;-78
2021/05/28 01:33:11;;;;;;;0.70;0.50;;;10.80;99.90;;;;;;5013714;28;20180;-78
2021/05/28 01:35:36;;;;;;;0.70;0.50;;;10.80;99.90;;;;;;5029896;28;20202;-78
2021/05/28 01:38:05;;;;;;;0.70;0.40;;;10.80;99.90;;;;;;5012285;28;20641;-79
2021/05/28 01:40:31;;;;;;;0.70;0.50;;;10.80;99.90;;;;;;5029065;28;20181;-79
2021/05/28 01:42:57;;;;;;;0.70;0.50;;;10.80;99.90;;;;;;5028691;28;20435;-79
2021/05/28 01:45:23;;;;;;;0.70;0.50;;;10.80;99.90;;;;;;5031051;28;20509;-80
2021/05/28 01:47:49;;;;;;;0.70;0.50;;;10.80;99.90;;;;;;5016266;28;20799;-79
2021/05/28 01:50:15;;;;;;;0.70;0.50;;;10.80;99.90;;;;;;5030100;28;20653;-79
2021/05/28 01:52:41;;;;;;;0.70;0.50;;;10.80;99.90;;;;;;5013814;28;20641;-77
2021/05/28 01:55:12;;;;;;;0.70;0.50;;;10.90;99.90;;;;;;5026238;28;20447;-78
2021/05/28 01:57:38;;;;;;;0.70;0.50;;;10.90;99.90;;;;;;5027059;28;20546;-78
2021/05/28 02:00:12;;;;;;;0.70;0.50;;;10.90;99.90;;;;;;5027548;28;20518;-79
2021/05/28 02:02:37;;;;;;;0.70;0.50;;;10.80;99.90;;;;;;5012178;28;20454;-78
2021/05/28 02:05:06;;;;;;;0.70;0.50;;;10.90;99.90;;;;;;5012697;28;20467;-77
2021/05/28 02:07:31;;;;;;;0.70;0.50;;;10.80;99.90;;;;;;5013683;28;20207;-77
2021/05/28 02:09:57;;;;;;;0.70;0.50;;;10.80;99.90;;;;;;5013400;28;20427;-77
2021/05/28 02:12:23;;;;;;;0.70;0.50;;;10.80;99.90;;;;;;5012880;28;20183;-78
2021/05/28 02:14:50;;;;;;;0.70;0.50;;;10.80;99.90;;;;;;5027433;28;20188;-78
2021/05/28 02:17:16;;;;;;;0.70;0.50;;;10.80;99.90;;;;;;5012505;28;20207;-78
2021/05/28 02:19:42;;;;;;;0.70;0.50;;;10.80;99.90;;;;;;5013460;28;20443;-79
2021/05/28 02:22:10;;;;;;;0.70;0.50;;;10.70;99.90;;;;;;5031038;28;20449;-79
2021/05/28 02:24:36;;;;;;;0.70;0.50;;;10.70;99.90;;;;;;5031488;28;20242;-80
2021/05/28 02:27:02;;;;;;;0.70;0.50;;;10.70;99.90;;;;;;5015270;28;20439;-79
2021/05/28 02:29:28;;;;;;;0.70;0.50;;;10.70;99.90;;;;;;5027688;28;20559;-77
2021/05/28 02:31:53;;;;;;;0.70;0.50;;;10.60;99.90;;;;;;5012914;28;20431;-79
2021/05/28 02:34:19;;;;;;;0.87;0.70;;;10.60;99.90;;;;;;5029540;28;20180;-79
2021/05/28 02:36:45;;;;;;;0.70;0.50;;;10.60;99.90;;;;;;5030742;28;20192;-79
2021/05/28 02:39:10;;;;;;;0.70;0.60;;;10.60;99.90;;;;;;5028009;28;20202;-79
2021/05/28 02:41:36;;;;;;;0.70;0.50;;;10.50;99.90;;;;;;5012065;28;20259;-78
2021/05/28 02:44:04;;;;;;;0.70;0.50;;;10.50;99.90;;;;;;5013099;28;20203;-79
2021/05/28 02:46:31;;;;;;;1.00;0.70;;;10.50;99.90;;;;;;5012367;28;20459;-77
2021/05/28 02:48:56;;;;;;;0.70;0.50;;;10.50;99.90;;;;;;5027409;28;20511;-79
2021/05/28 02:51:22;;;;;;;0.70;0.50;;;10.40;99.90;;;;;;5026087;28;20434;-78
2021/05/28 02:53:47;;;;;;;0.70;0.50;;;10.40;99.90;;;;;;5011076;28;20180;-78
2021/05/28 02:56:13;;;;;;;0.70;0.50;;;10.40;99.90;;;;;;5012668;28;20183;-77
2021/05/28 02:58:39;;;;;;;0.70;0.50;;;10.30;99.90;;;;;;5016117;28;20628;-77
2021/05/28 03:01:04;;;;;;;0.70;0.50;;;10.30;99.90;;;;;;5010953;28;20176;-77
2021/05/28 03:03:30;;;;;;;0.70;0.50;;;10.30;99.90;;;;;;5028399;28;20208;-77
2021/05/28 03:05:56;;;;;;;0.70;0.50;;;10.30;99.90;;;;;;5012498;28;20198;-77
2021/05/28 03:08:21;;;;;;;0.70;0.50;;;10.30;99.90;;;;;;5019536;28;20194;-78
2021/05/28 03:10:47;;;;;;;0.70;0.50;;;10.20;99.90;;;;;;5020612;28;20168;-77
2021/05/28 03:13:14;;;;;;;0.70;0.50;;;10.20;99.90;;;;;;5027303;28;20206;-77
2021/05/28 03:15:41;;;;;;;0.70;0.50;;;10.10;99.90;;;;;;5021669;28;20782;-77
2021/05/28 03:18:14;;;;;;;0.70;0.50;;;10.10;99.90;;;;;;5014662;28;20932;-77
2021/05/28 03:20:41;;;;;;;0.70;0.60;;;10.10;99.90;;;;;;5012109;28;20486;-77
2021/05/28 03:23:07;;;;;;;0.70;0.50;;;10.10;99.90;;;;;;5042226;28;20418;-77
2021/05/28 03:25:33;;;;;;;1.10;0.90;;;10.10;99.90;;;;;;5011556;28;20423;-77
2021/05/28 03:27:59;;;;;;;0.70;0.50;;;10.10;99.90;;;;;;5017947;28;20612;-77
2021/05/28 03:30:25;;;;;;;0.70;0.50;;;10.10;99.90;;;;;;5040156;28;20415;-77
2021/05/28 03:32:51;;;;;;;0.70;0.50;;;10.10;99.90;;;;;;5025059;28;20433;-77
2021/05/28 03:35:16;;;;;;;1.43;0.83;;;10.10;99.90;;;;;;5023174;28;20411;-77
2021/05/28 03:37:42;;;;;;;0.70;0.50;;;10.10;99.90;;;;;;5027386;28;20194;-77
2021/05/28 03:40:09;;;;;;;0.70;0.50;;;10.00;99.90;;;;;;5018428;28;20183;-77
2021/05/28 03:42:35;;;;;;;0.70;0.50;;;10.00;99.90;;;;;;5024932;28;20495;-77
2021/05/28 03:45:00;;;;;;;0.70;0.50;;;10.00;99.90;;;;;;5022272;28;20462;-77
2021/05/28 03:47:26;;;;;;;0.70;0.50;;;10.00;99.90;;;;;;5030873;28;20505;-77
2021/05/28 03:49:52;;;;;;;0.70;0.50;;;10.00;99.90;;;;;;5015848;28;20172;-77
2021/05/28 03:52:17;;;;;;;1.30;0.97;;;10.00;99.90;;;;;;5015717;28;20609;-77
2021/05/28 03:54:43;;;;;;;0.70;0.50;;;10.00;99.90;;;;;;5015734;28;20166;-77
2021/05/28 03:57:08;;;;;;;0.70;0.50;;;10.00;99.90;;;;;;5015719;28;20188;-77
2021/05/28 03:59:34;;;;;;;0.70;0.50;;;10.00;99.90;;;;;;5034224;28;20190;-77
2021/05/28 04:02:00;;;;;;;0.83;0.70;;;10.00;99.90;;;;;;5028670;28;20179;-77
2021/05/28 04:04:25;;;;;;;0.70;0.50;;;10.10;99.90;;;;;;5023059;28;20210;-77
2021/05/28 04:06:51;;;;;;;0.70;0.50;;;10.10;99.90;;;;;;5016608;28;20275;-78
2021/05/28 04:09:16;;;;;;;2.10;1.90;;;10.10;99.90;;;;;;5042694;28;20169;-77
2021/05/28 04:11:42;;;;;;;0.70;0.50;;;10.10;99.90;;;;;;5026778;28;20173;-77
2021/05/28 04:14:08;;;;;;;0.70;0.50;;;10.10;99.90;;;;;;5029532;28;20266;-77
2021/05/28 04:16:33;;;;;;;0.70;0.50;;;10.20;99.90;;;;;;5017743;28;20200;-78
2021/05/28 04:18:59;;;;;;;0.70;0.50;;;10.20;99.90;;;;;;5015790;28;20172;-77
2021/05/28 04:21:24;;;;;;;1.17;1.17;;;10.20;99.90;;;;;;5019285;28;20184;-77
2021/05/28 04:23:50;;;;;;;0.83;0.70;;;10.30;99.90;;;;;;5018842;28;20216;-77
2021/05/28 04:26:15;;;;;;;0.70;0.50;;;10.30;99.90;;;;;;5024461;28;20233;-77
2021/05/28 04:28:41;;;;;;;0.70;0.50;;;10.30;99.90;;;;;;5013902;28;20176;-77
2021/05/28 04:31:06;;;;;;;0.70;0.50;;;10.30;99.90;;;;;;5045755;28;20506;-77
2021/05/28 04:33:32;;;;;;;7.80;1.30;;;10.30;99.90;;;;;;5034242;28;20607;-77
2021/05/28 04:35:57;;;;;;;1.77;1.20;;;10.30;99.90;;;;;;5040219;28;20234;-78
2021/05/28 04:38:23;;;;;;;0.70;0.60;;;10.40;99.90;;;;;;5028443;28;20223;-77
2021/05/28 04:40:51;;;;;;;0.70;0.50;;;10.50;99.90;;;;;;5015753;28;20183;-77
2021/05/28 04:43:17;;;;;;;0.70;0.50;;;10.50;99.90;;;;;;5021096;28;20675;-77
2021/05/28 04:45:43;;;;;;;1.67;0.80;;;10.50;99.90;;;;;;5030057;28;20517;-77
2021/05/28 04:48:08;;;;;;;1.00;0.90;;;10.60;99.90;;;;;;5014638;28;20589;-77
2021/05/28 04:50:36;;;;;;;0.70;0.50;;;10.60;99.90;;;;;;5020430;28;20182;-77
2021/05/28 04:53:03;;;;;;;0.70;0.50;;;10.70;99.90;;;;;;5025100;28;20166;-77
2021/05/28 04:55:29;;;;;;;0.70;0.60;;;10.70;99.90;;;;;;5031673;28;20418;-77
2021/05/28 04:57:55;;;;;;;0.70;0.50;;;10.80;99.90;;;;;;5044559;28;20574;-77
2021/05/28 05:00:22;;;;;;;0.70;0.50;;;10.80;99.90;;;;;;5021226;28;20541;-77
2021/05/28 05:02:47;;;;;;;0.70;0.50;;;10.90;99.90;;;;;;5037589;28;20262;-77
2021/05/28 05:05:14;;;;;;;0.70;0.50;;;11.00;99.90;;;;;;5011535;28;20567;-77
2021/05/28 05:07:40;;;;;;;0.80;0.70;;;11.00;99.90;;;;;;5029189;28;20202;-77
2021/05/28 05:10:06;;;;;;;0.70;0.50;;;11.10;99.90;;;;;;5011155;28;20512;-77
2021/05/28 05:12:32;;;;;;;0.70;0.50;;;11.10;99.90;;;;;;5024173;28;20190;-77
2021/05/28 05:14:58;;;;;;;0.70;0.60;;;11.20;99.90;;;;;;5019190;28;20525;-77
2021/05/28 05:17:24;;;;;;;1.00;0.80;;;11.30;99.90;;;;;;5039383;28;20203;-77
2021/05/28 05:19:50;;;;;;;0.70;0.50;;;11.40;99.90;;;;;;5012871;28;20443;-78
2021/05/28 05:22:15;;;;;;;0.70;0.50;;;11.50;99.90;;;;;;5014401;28;20177;-77
2021/05/28 05:24:41;;;;;;;0.70;0.50;;;11.60;99.90;;;;;;5013336;28;20234;-77
2021/05/28 05:27:07;;;;;;;0.80;0.73;;;11.70;99.90;;;;;;5013839;28;20693;-77
2021/05/28 05:29:32;;;;;;;0.70;0.50;;;11.80;99.90;;;;;;5013999;28;20209;-77
2021/05/28 05:31:58;;;;;;;0.70;0.50;;;11.90;99.90;;;;;;5029716;28;20180;-77
2021/05/28 05:34:23;;;;;;;0.70;0.50;;;12.10;99.90;;;;;;5013126;28;20270;-77
2021/05/28 05:36:49;;;;;;;1.07;0.97;;;12.20;99.90;;;;;;5031143;28;20234;-77
2021/05/28 05:39:14;;;;;;;0.80;0.80;;;12.30;99.90;;;;;;5015614;28;20176;-77
2021/05/28 05:41:40;;;;;;;2.07;1.97;;;12.50;99.90;;;;;;5033380;28;20209;-78
2021/05/28 05:44:06;;;;;;;0.70;0.50;;;12.70;99.90;;;;;;5017183;28;20665;-78
2021/05/28 05:46:34;;;;;;;0.70;0.50;;;12.90;99.90;;;;;;5033210;28;20212;-78
2021/05/28 05:49:00;;;;;;;0.70;0.50;;;13.00;99.90;;;;;;5017943;28;20447;-78
2021/05/28 05:51:25;;;;;;;0.80;0.70;;;13.10;99.90;;;;;;5018892;28;20493;-78
2021/05/28 05:53:51;;;;;;;0.70;0.70;;;13.30;99.90;;;;;;5035866;28;20191;-78
2021/05/28 05:56:17;;;;;;;0.70;0.50;;;13.60;99.90;;;;;;5025269;28;20665;-78
2021/05/28 05:58:42;;;;;;;0.70;0.50;;;13.80;99.90;;;;;;5011244;28;20628;-78
2021/05/28 06:01:09;;;;;;;0.70;0.50;;;14.00;99.90;;;;;;5019581;28;20203;-78
2021/05/28 06:03:34;;;;;;;0.70;0.50;;;14.20;99.90;;;;;;5021237;28;20203;-78
2021/05/28 06:06:00;;;;;;;0.70;0.50;;;14.30;99.90;;;;;;5038621;28;20428;-78
2021/05/28 06:08:26;;;;;;;0.70;0.50;;;14.50;99.90;;;;;;5033001;28;20204;-78
2021/05/28 06:10:51;;;;;;;0.70;0.50;;;14.70;99.90;;;;;;5044728;28;20600;-78
2021/05/28 06:13:17;;;;;;;0.80;0.70;;;14.60;99.90;;;;;;5023717;28;20210;-78
2021/05/28 06:15:42;;;;;;;0.70;0.50;;;14.60;99.90;;;;;;5036951;28;20187;-78
2021/05/28 06:18:08;;;;;;;0.70;0.50;;;14.60;99.90;;;;;;5018836;28;20200;-78
2021/05/28 06:20:34;;;;;;;0.70;0.50;;;14.40;99.90;;;;;;5033080;28;20198;-78
2021/05/28 06:23:00;;;;;;;0.70;0.50;;;14.40;99.90;;;;;;5018006;28;20202;-78
2021/05/28 06:25:26;;;;;;;0.70;0.50;;;14.40;99.90;;;;;;5017761;28;20218;-78
2021/05/28 06:27:51;;;;;;;0.70;0.50;;;14.40;99.90;;;;;;5020736;28;20463;-78
2021/05/28 06:30:17;;;;;;;0.70;0.50;;;14.40;99.90;;;;;;5038355;28;20450;-78
2021/05/28 06:32:43;;;;;;;0.70;0.50;;;14.40;99.90;;;;;;5033274;28;20235;-78
2021/05/28 06:35:09;;;;;;;0.70;0.60;;;14.30;99.90;;;;;;5034653;28;20442;-78
2021/05/28 06:37:35;;;;;;;0.70;0.50;;;14.30;99.90;;;;;;5021738;28;20208;-79
2021/05/28 06:40:00;;;;;;;0.70;0.50;;;14.40;99.90;;;;;;5036988;28;20534;-79
2021/05/28 06:42:26;;;;;;;0.83;0.83;;;14.70;99.90;;;;;;5036735;28;20190;-79
2021/05/28 06:44:52;;;;;;;1.57;1.27;;;15.00;99.90;;;;;;5036250;28;20200;-79
2021/05/28 06:47:20;;;;;;;0.70;0.50;;;15.20;99.90;;;;;;5022752;28;20216;-79
2021/05/28 06:49:45;;;;;;;0.70;0.50;;;15.50;99.90;;;;;;5039213;28;20172;-79
2021/05/28 06:52:12;;;;;;;0.70;0.60;;;15.90;99.90;;;;;;5038461;28;20453;-79
2021/05/28 06:54:38;;;;;;;0.70;0.50;;;16.20;99.90;;;;;;5033548;28;20172;-79
2021/05/28 06:57:03;;;;;;;0.70;0.50;;;16.20;99.90;;;;;;5017821;28;20450;-79
2021/05/28 06:59:29;;;;;;;0.70;0.50;;;16.50;99.90;;;;;;5037688;28;20449;-79
2021/05/28 07:01:55;;;;;;;0.70;0.50;;;16.40;99.90;;;;;;5038407;28;20180;-79
2021/05/28 07:04:21;;;;;;;0.70;0.50;;;16.60;99.90;;;;;;5037403;28;20204;-80
2021/05/28 07:06:47;;;;;;;0.70;0.50;;;16.90;99.90;;;;;;5038877;28;20470;-78
2021/05/28 07:09:12;;;;;;;0.70;0.50;;;17.30;99.90;;;;;;5039560;28;20461;-78
2021/05/28 07:11:41;;;;;;;0.70;0.50;;;17.80;99.90;;;;;;5038396;28;20168;-80
2021/05/28 07:14:09;;;;;;;0.70;0.50;;;18.10;99.90;;;;;;5022414;28;20176;-80
2021/05/28 07:16:36;;;;;;;0.70;0.50;;;18.40;99.90;;;;;;5023317;28;20522;-79
2021/05/28 07:19:02;;;;;;;0.70;0.50;;;18.30;99.90;;;;;;5018646;28;20432;-80
2021/05/28 07:21:28;;;;;;;0.70;0.50;;;18.40;99.90;;;;;;5032232;28;20461;-80
2021/05/28 07:23:54;;;;;;;0.70;0.57;;;18.30;99.90;;;;;;5027435;28;20195;-80
2021/05/28 07:26:20;;;;;;;0.70;0.60;;;18.10;99.90;;;;;;5040868;28;20519;-78
2021/05/28 07:28:46;;;;;;;0.70;0.60;;;17.90;99.90;;;;;;5040755;28;20436;-79
2021/05/28 07:31:12;;;;;;;0.70;0.50;;;17.60;99.90;;;;;;5022362;28;20441;-78
2021/05/28 07:33:38;;;;;;;0.70;0.50;;;17.40;99.90;;;;;;5022470;28;20516;-79
2021/05/28 07:36:05;;;;;;;0.70;0.60;;;17.30;99.90;;;;;;5018893;28;20434;-79
2021/05/28 07:38:31;;;;;;;0.70;0.50;;;17.10;99.90;;;;;;5034892;28;20435;-79
2021/05/28 07:40:56;;;;;;;0.70;0.50;;;17.00;99.90;;;;;;5035523;28;20434;-79
2021/05/28 07:43:22;;;;;;;0.70;0.50;;;17.00;99.90;;;;;;5019221;28;20466;-78
2021/05/28 07:45:51;;;;;;;0.70;0.50;;;16.90;99.90;;;;;;5034610;28;20184;-79
2021/05/28 07:48:18;;;;;;;0.70;0.50;;;16.80;99.90;;;;;;5036147;28;20196;-79
2021/05/28 07:50:48;;;;;;;0.70;0.50;;;17.00;99.90;;;;;;5036684;28;20435;-79
2021/05/28 07:53:25;;;;;;;0.70;0.50;;;17.20;99.90;;;;;;5027325;28;20438;-80
2021/05/28 07:56:05;;;;;;;1.30;0.80;;;17.70;99.90;;;;;;5036077;28;20439;-80
2021/05/28 07:58:31;;;;;;;0.70;0.50;;;18.60;99.90;;;;;;5036348;28;20465;-79
2021/05/28 08:00:56;;;;;;;0.70;0.50;;;19.00;99.90;;;;;;5037182;28;21008;-79
2021/05/28 08:03:23;;;;;;;0.70;0.70;;;19.10;99.90;;;;;;5036544;28;20443;-79
2021/05/28 08:05:51;;;;;;;2.17;1.97;;;19.20;99.90;;;;;;5023125;28;20180;-79
2021/05/28 08:08:21;;;;;;;0.70;0.50;;;19.00;99.90;;;;;;5036721;28;20463;-79
2021/05/28 08:10:48;;;;;;;0.70;0.60;;;18.80;99.90;;;;;;5021976;28;20792;-79
2021/05/28 08:13:14;;;;;;;0.70;0.50;;;19.00;99.90;;;;;;5022165;28;20477;-80
2021/05/28 08:15:43;;;;;;;0.70;0.50;;;19.20;99.90;;;;;;5034430;28;20435;-80
2021/05/28 08:18:09;;;;;;;0.90;0.80;;;19.50;99.90;;;;;;5034659;28;20200;-79
2021/05/28 08:20:34;;;;;;;0.70;0.50;;;19.80;99.90;;;;;;5027614;28;20434;-79
2021/05/28 08:23:00;;;;;;;0.70;0.50;;;20.40;99.90;;;;;;5018230;28;20435;-80
2021/05/28 08:25:27;;;;;;;0.80;0.50;;;21.00;99.90;;;;;;5018979;28;20874;-80
2021/05/28 08:27:54;;;;;;;0.80;0.60;;;21.60;99.90;;;;;;5020941;28;20196;-80
2021/05/28 08:30:20;;;;;;;0.80;0.60;;;21.80;99.90;;;;;;5036196;28;20431;-80
2021/05/28 08:32:46;;;;;;;0.70;0.50;;;21.90;99.90;;;;;;5022866;28;20430;-80
2021/05/28 08:35:14;;;;;;;0.70;0.50;;;21.80;99.90;;;;;;5040793;28;20431;-79
2021/05/28 08:37:39;;;;;;;0.80;0.50;;;21.80;99.90;;;;;;5040119;28;20443;-80
2021/05/28 08:40:06;;;;;;;0.70;0.50;;;21.60;99.90;;;;;;5040468;28;20453;-80
2021/05/28 08:42:32;;;;;;;0.80;0.60;;;21.40;99.90;;;;;;5041035;28;20169;-79
2021/05/28 08:44:58;;;;;;;0.70;0.50;;;21.30;99.90;;;;;;5042376;28;20458;-79
2021/05/28 08:47:24;;;;;;;0.70;0.50;;;21.00;99.90;;;;;;5042454;28;20455;-79
2021/05/28 08:49:56;;;;;;;0.80;0.50;;;20.80;99.90;;;;;;5041722;28;20422;-79
2021/05/28 08:52:22;;;;;;;0.70;0.50;;;20.20;99.90;;;;;;5042480;28;20443;-79
2021/05/28 08:54:49;;;;;;;0.70;0.50;;;20.10;99.90;;;;;;5025888;28;20518;-79
2021/05/28 08:57:15;;;;;;;0.70;0.60;;;20.00;99.90;;;;;;5040021;28;21037;-80
2021/05/28 08:59:41;;;;;;;2.80;0.90;;;20.10;99.90;;;;;;5036746;28;20446;-80
2021/05/28 09:02:28;;;;;;;0.70;0.50;;;20.10;99.90;;;;;;5019234;28;20963;-80
2021/05/28 09:05:14;;;;;;;0.80;0.50;;;20.70;99.90;;;;;;5034198;28;20196;-80
2021/05/28 09:07:52;;;;;;;0.70;0.50;;;21.00;99.90;;;;;;5015705;28;20459;-81
2021/05/28 09:10:30;;;;;;;1.20;0.87;;;21.10;99.90;;;;;;5016718;28;20451;-80
2021/05/28 09:13:06;;;;;;;0.80;0.60;;;21.30;99.90;;;;;;5015405;28;20434;-81
2021/05/28 09:15:32;;;;;;;0.80;0.70;;;21.50;99.90;;;;;;5032447;28;20430;-79
2021/05/28 09:17:57;;;;;;;0.70;0.50;;;21.00;99.90;;;;;;5037828;28;20517;-79
2021/05/28 09:20:23;;;;;;;0.70;0.60;;;20.90;99.90;;;;;;5035685;28;20172;-80
2021/05/28 09:23:11;;;;;;;0.70;0.50;;;21.10;99.90;;;;;;5031819;28;20180;-81
2021/05/28 09:25:51;;;;;;;0.70;0.50;;;21.30;99.90;;;;;;5025860;28;20469;-81
2021/05/28 09:28:17;;;;;;;0.70;0.50;;;21.20;99.90;;;;;;5015596;28;20876;-81
2021/05/28 09:30:43;;;;;;;0.80;0.70;;;21.20;99.90;;;;;;5014926;28;20442;-81
2021/05/28 09:33:19;;;;;;;0.70;0.50;;;21.00;99.90;;;;;;5030561;28;20180;-80
2021/05/28 09:35:44;;;;;;;0.80;0.50;;;21.10;99.90;;;;;;5029800;28;20427;-80
2021/05/28 09:38:18;;;;;;;0.70;0.50;;;21.00;99.90;;;;;;5029379;28;20508;-81
2021/05/28 09:40:44;;;;;;;0.70;0.50;;;21.10;99.90;;;;;;5031151;28;20230;-80
2021/05/28 09:43:13;;;;;;;2.60;0.87;;;21.40;99.90;;;;;;5018973;28;20438;-79
2021/05/28 09:45:39;;;;;;;0.77;0.50;;;21.80;99.90;;;;;;5021346;28;20745;-78
2021/05/28 09:48:14;;;;;;;0.80;0.50;;;22.00;99.90;;;;;;5021151;28;20447;-79
2021/05/28 09:50:44;;;;;;;0.80;0.60;;;22.50;99.90;;;;;;5020457;28;20454;-80
2021/05/28 09:53:40;;;;;;;4.20;1.37;;;22.80;99.90;;;;;;5035451;28;20462;-80
2021/05/28 09:56:28;;;;;;;0.80;0.50;;;23.00;99.90;;;;;;5041154;28;20431;-81
2021/05/28 09:59:04;;;;;;;0.80;0.50;;;23.40;99.90;;;;;;5017966;28;20581;-80
2021/05/28 10:01:30;;;;;;;0.80;0.50;;;23.40;99.90;;;;;;5030568;28;20452;-80
2021/05/28 10:04:07;;;;;;;0.80;0.50;;;23.20;99.90;;;;;;5015205;28;20478;-80
2021/05/28 10:06:38;;;;;;;0.90;0.67;;;23.00;99.90;;;;;;5033444;28;20443;-79
2021/05/28 10:09:09;;;;;;;0.80;0.60;;;22.90;99.90;;;;;;5037887;28;20439;-80
2021/05/28 10:11:38;;;;;;;0.70;0.50;;;22.90;99.90;;;;;;5014479;28;20418;-80
2021/05/28 10:14:04;;;;;;;0.70;0.50;;;22.70;99.90;;;;;;5023980;28;20451;-80
2021/05/28 10:16:30;;;;;;;0.80;0.50;;;22.70;99.90;;;;;;5030232;28;20550;-80
2021/05/28 10:18:57;;;;;;;0.77;0.60;;;22.90;99.90;;;;;;5029625;28;20486;-80
2021/05/28 10:21:24;;;;;;;0.80;0.50;;;23.20;99.90;;;;;;5017388;28;20184;-81
2021/05/28 10:23:50;;;;;;;0.80;0.50;;;23.50;99.20;;;;;;5035380;28;20459;-81
2021/05/28 10:26:23;;;;;;;0.80;0.50;;;23.80;99.80;;;;;;5034388;28;20827;-80
2021/05/28 10:28:49;;;;;;;0.80;0.50;;;24.30;97.70;;;;;;5030549;28;20438;-80
2021/05/28 10:31:15;;;;;;;1.33;0.70;;;24.80;92.20;;;;;;5030671;28;20443;-80
2021/05/28 10:33:52;;;;;;;0.80;0.50;;;25.00;91.50;;;;;;5016634;28;20191;-80
2021/05/28 10:36:43;;;;;;;0.80;0.60;;;25.30;86.40;;;;;;5020087;28;20422;-80
2021/05/28 10:39:10;;;;;;;0.80;0.60;;;26.00;86.50;;;;;;5016589;28;20959;-81
2021/05/28 10:41:38;;;;;;;0.80;0.57;;;25.70;73.60;;;;;;5021337;28;20437;-80
2021/05/28 10:44:09;;;;;;;1.13;1.03;;;25.40;69.70;;;;;;5031301;28;20455;-80
2021/05/28 10:46:36;;;;;;;0.80;0.50;;;25.70;69.90;;;;;;5030211;28;20475;-80
2021/05/28 10:49:08;;;;;;;0.80;0.50;;;25.80;73.30;;;;;;5030476;28;20832;-80
2021/05/28 10:51:33;;;;;;;0.80;0.60;;;25.60;77.70;;;;;;5031106;28;20489;-80
2021/05/28 10:53:59;;;;;;;0.80;0.50;;;25.70;81.30;;;;;;5029671;28;20435;-80
2021/05/28 10:56:49;;;;;;;0.80;0.50;;;26.20;78.90;;;;;;5024687;28;20346;-81
2021/05/28 10:59:16;;;;;;;0.80;0.50;;;26.40;80.50;;;;;;5013553;28;20183;-81
2021/05/28 11:01:58;;;;;;;0.80;0.60;;;26.30;75.00;;;;;;5023395;28;20474;-81
2021/05/28 11:04:44;;;;;;;0.80;0.60;;;26.30;77.90;;;;;;5023112;28;20546;-81
2021/05/28 11:07:09;;;;;;;0.80;0.50;;;26.00;75.00;;;;;;5007569;28;20455;-81
2021/05/28 11:09:46;;;;;;;0.80;0.60;;;25.80;73.50;;;;;;5022533;28;20955;-80
2021/05/28 11:12:13;;;;;;;0.80;0.50;;;25.30;74.60;;;;;;5006374;28;20670;-80
2021/05/28 11:14:58;;;;;;;0.80;0.50;;;24.90;75.30;;;;;;5010829;28;20437;-79
2021/05/28 11:17:24;;;;;;;0.80;0.50;;;25.00;75.20;;;;;;5008974;28;20509;-80
2021/05/28 11:19:53;;;;;;;0.80;0.50;;;25.10;76.50;;;;;;5026852;28;20439;-80
2021/05/28 11:22:29;;;;;;;0.80;0.50;;;25.50;78.20;;;;;;5015482;28;20181;-80
2021/05/28 11:25:04;;;;;;;0.80;0.50;;;26.20;73.70;;;;;;5048070;28;20515;-80
2021/05/28 11:27:32;;;;;;;0.80;0.50;;;26.70;72.20;;;;;;5013877;28;20517;-81
2021/05/28 11:30:04;;;;;;;1.00;0.80;;;27.20;67.70;;;;;;5031092;28;20453;-80
2021/05/28 11:32:47;;;;;;;0.80;0.60;;;27.30;64.90;;;;;;5022799;28;20462;-80
2021/05/28 11:35:24;;;;;;;0.80;0.67;;;27.80;65.50;;;;;;5034961;28;20434;-80
2021/05/28 11:38:05;;;;;;;0.80;0.60;;;28.00;58.50;;;;;;5022101;28;20462;-80
2021/05/28 11:40:33;;;;;;;0.80;0.50;;;28.30;60.20;;;;;;5037084;28;20790;-80
2021/05/28 11:43:34;;;;;;;0.80;0.60;;;28.10;65.50;;;;;;5019160;28;20446;-80
2021/05/28 11:45:59;;;;;;;0.80;0.60;;;28.20;62.40;;;;;;5029770;28;20435;-80
2021/05/28 11:48:28;;;;;;;1.43;0.80;;;28.20;59.70;;;;;;5023962;28;20454;-81
2021/05/28 11:50:58;;;;;;;0.80;0.50;;;27.60;58.70;;;;;;5037891;28;20172;-81
2021/05/28 11:53:38;;;;;;;0.80;0.60;;;27.40;58.30;;;;;;5035403;28;20431;-79
2021/05/28 11:56:05;;;;;;;0.97;0.87;;;27.70;60.00;;;;;;5013993;28;20492;-80
2021/05/28 11:58:34;;;;;;;0.80;0.50;;;28.00;58.20;;;;;;5038931;28;20499;-79
2021/05/28 12:01:02;;;;;;;0.80;0.60;;;28.10;56.80;;;;;;5040989;28;20451;-80
2021/05/28 12:03:28;;;;;;;0.80;0.50;;;27.90;58.10;;;;;;5039241;28;20435;-81
2021/05/28 12:05:54;;;;;;;1.57;0.70;;;27.70;57.30;;;;;;5034747;28;20611;-80
2021/05/28 12:08:22;;;;;;;0.80;0.60;;;27.60;58.00;;;;;;5022191;28;20450;-79
2021/05/28 12:11:08;;;;;;;0.80;0.60;;;27.60;62.30;;;;;;5036064;28;20844;-77
2021/05/28 12:13:36;;;;;;;0.80;0.50;;;27.70;61.60;;;;;;5022055;28;20434;-80
2021/05/28 12:16:05;;;;;;;0.80;0.50;;;27.80;62.60;;;;;;5034695;28;20419;-81
2021/05/28 12:18:36;;;;;;;0.80;0.50;;;27.90;64.20;;;;;;5036958;28;20483;-79
2021/05/28 12:21:13;;;;;;;0.80;0.50;;;27.40;63.50;;;;;;5028619;28;20431;-80
2021/05/28 12:23:40;;;;;;;0.80;0.60;;;27.40;62.70;;;;;;5020691;28;20406;-80
2021/05/28 12:26:11;;;;;;;0.80;0.60;;;27.10;62.50;;;;;;5031006;28;20430;-80
2021/05/28 12:28:39;;;;;;;0.80;0.50;;;27.20;61.40;;;;;;5033407;28;20553;-81
2021/05/28 12:31:07;;;;;;;0.80;0.53;;;26.60;62.80;;;;;;5014550;28;20562;-81
2021/05/28 12:33:35;;;;;;;0.80;0.50;;;26.90;64.10;;;;;;5017885;28;20434;-79
2021/05/28 12:36:09;;;;;;;0.83;0.57;;;27.10;65.10;;;;;;5031244;28;20435;-80
2021/05/28 12:38:50;;;;;;;0.80;0.50;;;27.20;65.90;;;;;;5033223;28;21036;-80
2021/05/28 12:41:18;;;;;;;0.80;0.50;;;27.20;62.10;;;;;;5018984;28;20404;-80
2021/05/28 12:43:46;;;;;;;0.80;0.50;;;27.30;65.00;;;;;;5014016;28;20538;-81
2021/05/28 12:46:27;;;;;;;0.80;0.60;;;27.60;62.80;;;;;;5040057;28;20450;-80
2021/05/28 12:48:53;;;;;;;0.80;0.60;;;27.80;62.70;;;;;;5032984;28;20455;-80
2021/05/28 12:51:40;;;;;;;0.80;0.60;;;27.90;61.50;;;;;;5017997;28;20407;-81